Time;durP1;ratioP1;P1;durP2;ratioP2;P2;SDS_P1;SDS_P2;PMS_P1;PMS_P2;Temp;Humidity;BMP_temperature;BMP_pressure;BME280_temperature;BME280_humidity;BME280_pressure;Samples;Min_cycle;Max_cycle;Signal;HPM_P1;HPM_P2
2023/01/19 00:00:27;;;;;;;33.50;26.57;;;-0.80;99.90;;;;;;4976940;28;20216;-44
2023/01/19 00:02:53;;;;;;;33.17;26.30;;;-0.80;99.90;;;;;;4975304;28;20239;-45
2023/01/19 00:05:20;;;;;;;29.83;26.63;;;-0.80;99.90;;;;;;4976169;28;20314;-44
2023/01/19 00:07:45;;;;;;;29.45;26.25;;;-0.90;99.90;;;;;;4981540;28;20199;-45
2023/01/19 00:10:11;;;;;;;34.60;26.83;;;-0.90;99.90;;;;;;4975571;28;20208;-46
2023/01/19 00:12:37;;;;;;;29.13;26.03;;;-1.00;99.90;;;;;;4973854;28;21002;-44
2023/01/19 00:15:03;;;;;;;31.30;26.90;;;-1.00;99.90;;;;;;4976321;28;20185;-45
2023/01/19 00:17:29;;;;;;;29.42;25.65;;;-1.00;99.90;;;;;;4974310;28;20199;-44
2023/01/19 00:19:54;;;;;;;34.80;26.93;;;-1.00;99.90;;;;;;4973217;28;20187;-45
2023/01/19 00:22:20;;;;;;;31.30;26.63;;;-1.00;99.90;;;;;;4968951;28;20643;-44
2023/01/19 00:24:45;;;;;;;34.60;28.57;;;-1.10;99.90;;;;;;4973645;28;20200;-45
2023/01/19 00:27:11;;;;;;;34.77;27.93;;;-1.10;99.90;;;;;;4978739;28;20191;-44
2023/01/19 00:29:37;;;;;;;35.23;29.20;;;-1.10;99.90;;;;;;4958503;28;20223;-44
2023/01/19 00:32:03;;;;;;;32.90;28.03;;;-1.10;99.90;;;;;;4977362;28;20616;-45
2023/01/19 00:34:38;;;;;;;31.52;27.35;;;-1.10;99.90;;;;;;4964679;28;20258;-45
2023/01/19 00:37:05;;;;;;;32.00;28.52;;;-1.20;99.90;;;;;;4972132;28;20183;-48
2023/01/19 00:39:30;;;;;;;30.75;26.48;;;-1.20;99.90;;;;;;4976530;28;20204;-48
2023/01/19 00:44:40;;;;;;;32.53;28.15;;;-1.20;99.90;;;;;;4982284;28;20242;-47
2023/01/19 00:47:06;;;;;;;33.47;27.87;;;-1.30;99.90;;;;;;4962197;28;20188;-45
2023/01/19 00:49:31;;;;;;;38.30;27.47;;;-1.30;99.90;;;;;;4981760;28;20218;-45
2023/01/19 00:51:57;;;;;;;33.10;28.00;;;-1.40;99.90;;;;;;4980307;28;20234;-46
2023/01/19 00:54:22;;;;;;;36.20;29.20;;;-1.40;99.90;;;;;;4970414;28;20749;-48
2023/01/19 00:56:48;;;;;;;31.47;27.03;;;-1.50;99.90;;;;;;4975178;28;20180;-45
2023/01/19 00:59:14;;;;;;;44.20;29.40;;;-1.40;99.90;;;;;;4970247;28;20431;-45
2023/01/19 01:01:39;;;;;;;32.90;28.77;;;-1.50;99.90;;;;;;4981045;28;20196;-48
2023/01/19 01:04:05;;;;;;;35.17;28.67;;;-1.60;99.90;;;;;;4970737;28;20180;-46
2023/01/19 01:06:30;;;;;;;39.77;28.80;;;-1.60;99.90;;;;;;4981105;28;20561;-44
2023/01/19 01:08:56;;;;;;;33.90;28.73;;;-1.60;99.90;;;;;;4970195;28;20214;-45
2023/01/19 01:11:22;;;;;;;34.23;28.40;;;-1.60;99.90;;;;;;4967810;28;20986;-48
2023/01/19 01:13:47;;;;;;;33.77;27.53;;;-1.60;99.90;;;;;;4981248;28;20229;-42
2023/01/19 01:16:16;;;;;;;35.67;29.03;;;-1.70;99.90;;;;;;4967930;28;20200;-44
2023/01/19 01:18:43;;;;;;;39.13;30.40;;;-1.70;99.90;;;;;;4980849;28;20192;-44
2023/01/19 01:21:11;;;;;;;35.08;28.13;;;-1.80;99.90;;;;;;4962962;28;20191;-46
2023/01/19 01:23:37;;;;;;;38.25;29.05;;;-1.80;99.90;;;;;;4974259;28;20188;-44
2023/01/19 01:26:03;;;;;;;33.50;26.90;;;-1.80;99.90;;;;;;4970573;28;20187;-44
2023/01/19 01:28:28;;;;;;;36.67;29.67;;;-1.80;99.90;;;;;;4980872;28;20231;-44
2023/01/19 01:30:56;;;;;;;34.07;28.50;;;-1.90;99.90;;;;;;4972139;28;20667;-45
2023/01/19 01:33:23;;;;;;;40.35;30.30;;;-1.90;99.90;;;;;;4980127;28;20192;-43
2023/01/19 01:35:50;;;;;;;36.40;27.55;;;-1.90;99.90;;;;;;4974125;28;20677;-46
2023/01/19 01:38:16;;;;;;;31.83;28.27;;;-1.90;99.90;;;;;;4980531;28;20230;-45
2023/01/19 01:40:42;;;;;;;35.67;27.53;;;-1.90;99.90;;;;;;4967899;28;20318;-44
2023/01/19 01:43:12;;;;;;;36.53;29.83;;;-2.00;99.90;;;;;;4960529;28;20486;-47
2023/01/19 01:45:39;;;;;;;30.42;27.17;;;-2.00;99.90;;;;;;4973714;28;20188;-44
2023/01/19 01:48:10;;;;;;;29.80;26.65;;;-2.00;99.90;;;;;;4980206;28;20192;-47
2023/01/19 01:51:22;;;;;;;32.17;27.52;;;-2.10;99.90;;;;;;4976462;28;20392;-45
2023/01/19 01:53:31;;;;;;;33.70;28.33;;;-2.10;99.90;;;;;;4974461;28;20207;-46
2023/01/19 01:55:58;;;;;;;32.00;27.95;;;-2.20;99.90;;;;;;4973122;28;20180;-49
2023/01/19 01:58:24;;;;;;;31.85;28.42;;;-2.20;99.90;;;;;;4971556;28;20185;-50
2023/01/19 02:03:34;;;;;;;35.10;28.27;;;-2.20;99.90;;;;;;4975936;28;20493;-48
2023/01/19 02:06:02;;;;;;;35.85;27.63;;;-2.20;99.90;;;;;;4971993;28;20193;-44
2023/01/19 02:14:13;;;;;;;35.25;27.23;;;-2.20;99.90;;;;;;4979807;28;20202;-47
2023/01/19 02:16:40;;;;;;;37.60;28.10;;;-2.20;99.90;;;;;;4966962;28;20551;-45
2023/01/19 02:19:11;;;;;;;34.00;27.20;;;-2.20;99.90;;;;;;4969049;28;20228;-47
2023/01/19 02:22:09;;;;;;;34.50;28.33;;;-2.30;99.90;;;;;;4970111;28;20463;-45
2023/01/19 02:24:35;;;;;;;33.58;26.88;;;-2.30;99.90;;;;;;4955248;28;20211;-44
2023/01/19 02:27:01;;;;;;;38.03;27.83;;;-2.40;99.90;;;;;;4965392;28;20191;-48
2023/01/19 02:29:27;;;;;;;38.53;27.48;;;-2.40;99.90;;;;;;4963918;28;20600;-45
2023/01/19 02:31:54;;;;;;;34.35;28.73;;;-2.50;99.90;;;;;;4979859;28;20199;-45
2023/01/19 02:34:21;;;;;;;31.42;26.63;;;-2.50;99.90;;;;;;4967511;28;20184;-45
2023/01/19 02:36:59;;;;;;;35.10;27.45;;;-2.50;99.90;;;;;;4977621;28;20198;-44
2023/01/19 02:39:30;;;;;;;31.63;27.05;;;-2.60;99.90;;;;;;4965160;28;20294;-42
2023/01/19 02:42:01;;;;;;;31.02;26.48;;;-2.60;99.90;;;;;;4979139;28;20235;-46
2023/01/19 02:44:29;;;;;;;29.60;25.25;;;-2.60;99.90;;;;;;4967624;28;20714;-42
2023/01/19 02:46:55;;;;;;;30.40;25.55;;;-2.70;99.90;;;;;;4984025;28;20195;-48
2023/01/19 02:49:22;;;;;;;37.80;26.60;;;-2.70;99.90;;;;;;4973135;28;20226;-45
2023/01/19 02:51:48;;;;;;;37.00;28.40;;;-2.70;99.90;;;;;;4978216;28;20271;-43
2023/01/19 02:54:38;;;;;;;33.17;27.33;;;-2.70;99.90;;;;;;4974535;28;20179;-46
2023/01/19 02:57:38;;;;;;;38.70;27.95;;;-2.80;99.90;;;;;;4971758;28;20236;-45
2023/01/19 03:00:12;;;;;;;38.97;28.98;;;-2.90;99.90;;;;;;4977209;28;20196;-44
2023/01/19 03:02:54;;;;;;;37.92;27.42;;;-2.90;99.90;;;;;;4981050;28;20369;-46
2023/01/19 03:05:33;;;;;;;31.73;27.05;;;-2.90;99.90;;;;;;4980090;28;20227;-44
2023/01/19 03:08:25;;;;;;;33.95;25.67;;;-2.90;99.90;;;;;;4966196;28;20188;-46
2023/01/19 03:11:04;;;;;;;39.15;27.75;;;-2.90;99.90;;;;;;4978231;28;20204;-48
2023/01/19 03:13:41;;;;;;;35.50;28.25;;;-2.90;99.90;;;;;;4962768;28;20184;-46
2023/01/19 03:16:21;;;;;;;33.72;26.98;;;-3.00;99.90;;;;;;4971276;28;20219;-44
2023/01/19 03:18:54;;;;;;;34.72;27.55;;;-3.00;99.90;;;;;;4971912;28;20191;-47
2023/01/19 03:21:23;;;;;;;32.88;27.80;;;-2.90;99.90;;;;;;4971865;28;20213;-45
2023/01/19 03:23:51;;;;;;;31.73;25.90;;;-2.90;99.90;;;;;;4983202;28;20221;-44
2023/01/19 03:26:26;;;;;;;31.00;25.98;;;-2.90;99.90;;;;;;4979185;28;20754;-45
2023/01/19 03:28:54;;;;;;;35.65;25.25;;;-2.90;99.90;;;;;;4978736;28;20522;-46
2023/01/19 03:31:23;;;;;;;34.55;26.55;;;-2.80;99.90;;;;;;4979551;28;20835;-45
2023/01/19 03:33:55;;;;;;;35.45;26.80;;;-2.70;99.90;;;;;;4962175;28;20280;-44
2023/01/19 03:36:42;;;;;;;34.75;25.75;;;-2.70;99.90;;;;;;4964414;28;20185;-45
2023/01/19 03:39:09;;;;;;;30.92;26.55;;;-2.70;99.90;;;;;;4976355;28;20191;-43
2023/01/19 03:41:37;;;;;;;32.85;25.75;;;-2.80;99.90;;;;;;4974720;28;20319;-45
2023/01/19 03:44:05;;;;;;;33.90;25.40;;;-2.80;99.90;;;;;;4979126;28;20266;-45
2023/01/19 03:46:31;;;;;;;30.38;25.85;;;-2.90;99.90;;;;;;4976521;28;20212;-44
2023/01/19 03:48:58;;;;;;;31.48;25.70;;;-2.90;99.90;;;;;;4978024;28;20188;-46
2023/01/19 03:51:24;;;;;;;36.95;26.05;;;-2.90;99.90;;;;;;4977838;28;20197;-45
2023/01/19 03:53:50;;;;;;;32.67;25.65;;;-2.90;99.90;;;;;;4979525;28;20187;-45
2023/01/19 03:56:17;;;;;;;31.33;24.37;;;-3.00;99.90;;;;;;4978640;28;20184;-43
2023/01/19 03:58:43;;;;;;;31.83;25.40;;;-3.00;99.90;;;;;;4975981;28;20283;-47
2023/01/19 04:01:09;;;;;;;33.23;26.67;;;-3.10;99.90;;;;;;4979386;28;20188;-47
2023/01/19 04:03:34;;;;;;;34.87;24.90;;;-3.10;99.90;;;;;;4978567;28;20184;-48
2023/01/19 04:06:00;;;;;;;29.93;23.43;;;-3.10;99.90;;;;;;4979551;28;20188;-46
2023/01/19 04:08:25;;;;;;;30.03;22.83;;;-3.10;99.90;;;;;;4977992;28;20207;-44
2023/01/19 04:10:51;;;;;;;29.73;22.60;;;-3.20;99.90;;;;;;4977125;28;20291;-44
2023/01/19 04:13:17;;;;;;;32.70;25.30;;;-3.20;99.90;;;;;;4982020;28;20196;-44
2023/01/19 04:15:42;;;;;;;28.73;25.57;;;-3.20;99.90;;;;;;4979912;28;20606;-45
2023/01/19 04:18:08;;;;;;;30.00;24.40;;;-3.20;99.90;;;;;;4981092;28;20528;-44
2023/01/19 04:20:34;;;;;;;30.17;23.90;;;-3.20;99.90;;;;;;4972265;28;20188;-49
2023/01/19 04:23:00;;;;;;;29.70;23.57;;;-3.30;99.90;;;;;;4968909;28;20853;-44
2023/01/19 04:25:27;;;;;;;30.83;23.60;;;-3.40;99.90;;;;;;4981530;28;20192;-44
2023/01/19 04:27:54;;;;;;;31.45;23.05;;;-3.40;99.90;;;;;;4971282;28;20381;-46
2023/01/19 04:30:19;;;;;;;26.40;22.83;;;-3.40;99.90;;;;;;4978215;28;20677;-47
2023/01/19 04:32:45;;;;;;;25.07;22.37;;;-3.50;99.90;;;;;;4973100;28;20272;-47
2023/01/19 04:35:11;;;;;;;27.13;22.67;;;-3.50;99.90;;;;;;4981604;28;20854;-45
2023/01/19 04:37:36;;;;;;;26.87;22.27;;;-3.50;99.90;;;;;;4969409;28;20449;-49
2023/01/19 04:40:02;;;;;;;26.93;22.07;;;-3.50;99.90;;;;;;4972374;28;20193;-44
2023/01/19 04:42:28;;;;;;;31.03;22.10;;;-3.60;99.90;;;;;;4973080;28;20235;-47
2023/01/19 04:44:53;;;;;;;25.83;22.83;;;-3.60;99.90;;;;;;4981329;28;20450;-42
2023/01/19 04:47:19;;;;;;;28.37;22.80;;;-3.60;99.90;;;;;;4976601;28;20270;-43
2023/01/19 04:49:45;;;;;;;29.17;22.70;;;-3.60;99.90;;;;;;4981355;28;20227;-45
2023/01/19 04:52:10;;;;;;;26.90;22.13;;;-3.60;99.90;;;;;;4967884;28;20238;-48
2023/01/19 04:54:36;;;;;;;30.57;23.70;;;-3.60;99.90;;;;;;4973001;28;20197;-45
2023/01/19 04:57:02;;;;;;;26.40;22.10;;;-3.70;99.90;;;;;;4975612;28;20291;-46
2023/01/19 04:59:27;;;;;;;29.37;24.23;;;-3.70;99.90;;;;;;4978435;28;20191;-46
2023/01/19 05:01:53;;;;;;;30.00;23.17;;;-3.70;99.90;;;;;;4978547;28;20680;-44
2023/01/19 05:04:18;;;;;;;27.20;22.40;;;-3.70;99.90;;;;;;4971192;28;20183;-43
2023/01/19 05:06:44;;;;;;;33.67;24.13;;;-3.80;99.90;;;;;;4967522;28;20567;-45
2023/01/19 05:09:11;;;;;;;30.17;23.50;;;-3.90;99.90;;;;;;4977540;28;20204;-43
2023/01/19 05:11:37;;;;;;;29.42;23.73;;;-3.80;99.90;;;;;;4965899;28;20189;-47
2023/01/19 05:14:03;;;;;;;25.23;20.90;;;-3.80;99.90;;;;;;4981008;28;20184;-47
2023/01/19 05:16:28;;;;;;;30.37;23.07;;;-3.80;99.90;;;;;;4970207;28;20203;-43
2023/01/19 05:18:54;;;;;;;32.00;22.77;;;-3.80;99.90;;;;;;4960035;28;20192;-46
2023/01/19 05:21:20;;;;;;;31.80;23.40;;;-3.90;99.90;;;;;;4969694;28;20705;-46
2023/01/19 05:23:45;;;;;;;28.60;21.60;;;-3.80;99.90;;;;;;4969286;28;20196;-45
2023/01/19 05:26:11;;;;;;;25.13;21.67;;;-3.90;99.90;;;;;;4974173;28;20180;-44
2023/01/19 05:28:37;;;;;;;26.77;22.03;;;-3.90;99.90;;;;;;4968227;28;20591;-45
2023/01/19 05:31:03;;;;;;;31.60;22.80;;;-4.00;99.90;;;;;;4965815;28;20487;-47
2023/01/19 05:33:28;;;;;;;27.77;22.02;;;-4.00;99.90;;;;;;4972224;28;20192;-45
2023/01/19 05:35:54;;;;;;;29.53;23.03;;;-4.00;99.90;;;;;;4964228;28;20184;-47
2023/01/19 05:38:20;;;;;;;32.50;25.13;;;-4.00;99.90;;;;;;4967245;28;20192;-46
2023/01/19 05:40:46;;;;;;;28.88;23.83;;;-4.00;99.90;;;;;;4967167;28;20233;-45
2023/01/19 05:43:12;;;;;;;31.83;23.00;;;-3.90;99.90;;;;;;4967270;28;20216;-45
2023/01/19 05:45:38;;;;;;;30.50;22.63;;;-4.00;99.90;;;;;;4966927;28;20185;-45
2023/01/19 05:48:05;;;;;;;30.30;24.03;;;-4.00;99.90;;;;;;4965271;28;20192;-46
2023/01/19 05:50:31;;;;;;;30.85;23.73;;;-4.00;99.90;;;;;;4973816;28;20204;-46
2023/01/19 05:52:58;;;;;;;29.58;23.80;;;-4.00;99.90;;;;;;4980362;28;20561;-48
2023/01/19 05:55:24;;;;;;;31.90;23.80;;;-4.00;99.90;;;;;;4968258;28;20176;-44
2023/01/19 05:57:50;;;;;;;31.13;22.25;;;-4.00;99.90;;;;;;4973841;28;20977;-46
2023/01/19 06:00:16;;;;;;;30.43;23.53;;;-4.10;99.90;;;;;;4973808;28;20184;-44
2023/01/19 06:02:42;;;;;;;25.13;21.00;;;-4.10;99.90;;;;;;4975614;28;20462;-45
2023/01/19 06:05:08;;;;;;;27.53;22.33;;;-4.10;99.90;;;;;;4974129;28;20828;-46
2023/01/19 06:07:34;;;;;;;30.48;21.73;;;-4.10;99.90;;;;;;4979997;28;20537;-46
2023/01/19 06:09:59;;;;;;;26.03;20.93;;;-4.00;99.90;;;;;;4979997;28;20222;-45
2023/01/19 06:12:25;;;;;;;27.40;21.03;;;-4.00;99.90;;;;;;4980196;28;20184;-46
2023/01/19 06:14:51;;;;;;;25.27;21.13;;;-4.00;99.90;;;;;;4979390;28;20218;-46
2023/01/19 06:17:17;;;;;;;25.63;21.07;;;-3.90;99.90;;;;;;4979227;28;20922;-49
2023/01/19 06:19:42;;;;;;;28.63;21.23;;;-3.90;99.90;;;;;;4976423;28;20898;-42
2023/01/19 06:22:08;;;;;;;26.60;20.87;;;-3.90;99.90;;;;;;4979673;28;20511;-47
2023/01/19 06:24:34;;;;;;;25.20;20.47;;;-3.90;99.90;;;;;;4977800;28;20192;-43
2023/01/19 06:26:59;;;;;;;25.10;20.13;;;-3.90;99.90;;;;;;4969851;28;20199;-44
2023/01/19 06:29:26;;;;;;;23.23;18.90;;;-3.90;99.90;;;;;;4979933;28;20318;-43
2023/01/19 06:31:52;;;;;;;22.58;17.55;;;-4.00;99.90;;;;;;4971135;28;20442;-45
2023/01/19 06:34:18;;;;;;;22.13;18.55;;;-4.00;99.90;;;;;;4979982;28;20187;-45
2023/01/19 06:36:45;;;;;;;22.20;18.65;;;-4.10;99.90;;;;;;4979943;28;20176;-47
2023/01/19 06:39:11;;;;;;;22.02;19.52;;;-4.10;99.90;;;;;;4976731;28;20267;-47
2023/01/19 06:41:37;;;;;;;21.23;18.92;;;-4.20;99.90;;;;;;4963296;28;20248;-47
2023/01/19 06:44:03;;;;;;;21.85;17.73;;;-4.20;99.90;;;;;;4973908;28;20675;-46
2023/01/19 06:46:29;;;;;;;22.23;19.63;;;-4.20;99.90;;;;;;4978543;28;20179;-45
2023/01/19 06:48:55;;;;;;;22.83;19.27;;;-4.20;99.90;;;;;;4960721;28;20662;-46
2023/01/19 06:51:21;;;;;;;23.93;20.17;;;-4.20;99.90;;;;;;4979585;28;20191;-45
2023/01/19 06:53:47;;;;;;;24.15;19.98;;;-4.20;99.90;;;;;;4977258;28;20192;-48
2023/01/19 06:56:13;;;;;;;19.90;17.77;;;-4.30;99.90;;;;;;4963699;28;20249;-46
2023/01/19 06:58:39;;;;;;;21.03;18.83;;;-4.30;99.90;;;;;;4964782;28;20440;-45
2023/01/19 07:01:06;;;;;;;24.27;20.58;;;-4.30;99.90;;;;;;4963297;28;20188;-46
2023/01/19 07:03:32;;;;;;;23.55;19.10;;;-4.40;99.90;;;;;;4974446;28;20242;-47
2023/01/19 07:06:01;;;;;;;22.95;19.65;;;-4.40;99.90;;;;;;4979316;28;20659;-46
2023/01/19 07:08:27;;;;;;;23.27;18.60;;;-4.40;99.90;;;;;;4979156;28;20181;-45
2023/01/19 07:11:03;;;;;;;23.23;20.15;;;-4.40;99.90;;;;;;4979417;28;20285;-46
2023/01/19 07:13:29;;;;;;;23.55;20.00;;;-4.40;99.90;;;;;;4979592;28;20183;-46
2023/01/19 07:15:55;;;;;;;21.15;18.73;;;-4.40;99.90;;;;;;4979198;28;20708;-47
2023/01/19 07:18:20;;;;;;;21.70;19.47;;;-4.40;99.90;;;;;;4979549;28;20193;-45
2023/01/19 07:20:48;;;;;;;20.90;18.70;;;-4.40;99.90;;;;;;4979517;28;20180;-46
2023/01/19 07:23:14;;;;;;;21.50;19.33;;;-4.40;99.90;;;;;;4979490;28;20184;-47
2023/01/19 07:25:40;;;;;;;21.13;18.80;;;-4.40;99.90;;;;;;4968506;28;20222;-45
2023/01/19 07:28:06;;;;;;;21.30;18.40;;;-4.40;99.90;;;;;;4959818;28;20184;-46
2023/01/19 07:30:31;;;;;;;23.03;18.57;;;-4.40;99.90;;;;;;4978610;28;20467;-46
2023/01/19 07:32:57;;;;;;;18.67;16.80;;;-4.40;99.90;;;;;;4981731;28;20214;-50
2023/01/19 07:35:24;;;;;;;19.73;17.63;;;-4.30;99.90;;;;;;4982558;28;20647;-45
2023/01/19 07:37:50;;;;;;;19.33;17.45;;;-4.30;99.90;;;;;;4982853;28;20414;-46
2023/01/19 07:40:16;;;;;;;18.40;16.52;;;-4.20;99.90;;;;;;4972579;28;20181;-50
2023/01/19 07:42:47;;;;;;;21.67;18.08;;;-4.20;99.90;;;;;;4962101;28;20441;-46
2023/01/19 07:45:14;;;;;;;19.55;17.45;;;-4.10;99.90;;;;;;4975998;28;20184;-47
2023/01/19 07:47:42;;;;;;;19.60;17.58;;;-4.10;99.90;;;;;;4982809;28;20319;-46
2023/01/19 07:50:09;;;;;;;19.23;17.23;;;-4.00;99.90;;;;;;4982641;28;20207;-46
2023/01/19 07:52:34;;;;;;;19.25;17.20;;;-4.00;99.90;;;;;;4982797;28;20203;-43
2023/01/19 07:55:00;;;;;;;20.27;18.27;;;-4.00;99.90;;;;;;4977031;28;20536;-46
2023/01/19 07:57:26;;;;;;;20.67;18.50;;;-3.90;99.90;;;;;;4982385;28;20187;-45
2023/01/19 07:59:52;;;;;;;21.77;19.60;;;-3.70;99.90;;;;;;4979362;28;20184;-44
2023/01/19 08:02:17;;;;;;;21.80;17.77;;;-3.60;99.90;;;;;;4982487;28;20187;-46
2023/01/19 08:04:43;;;;;;;22.53;18.43;;;-3.50;99.90;;;;;;4982382;28;20204;-45
2023/01/19 08:07:09;;;;;;;20.17;18.08;;;-3.60;99.90;;;;;;4976661;28;20232;-46
2023/01/19 08:09:35;;;;;;;22.02;18.92;;;-3.40;99.90;;;;;;4975106;28;20687;-47
2023/01/19 08:12:01;;;;;;;23.93;18.50;;;-3.60;99.90;;;;;;4981876;28;20172;-46
2023/01/19 08:14:26;;;;;;;20.27;18.17;;;-3.50;99.90;;;;;;4982573;28;20614;-44
2023/01/19 08:16:52;;;;;;;22.80;19.27;;;-3.30;99.90;;;;;;4982688;28;20176;-47
2023/01/19 08:19:18;;;;;;;21.07;18.80;;;-3.10;99.90;;;;;;4982066;28;20188;-44
2023/01/19 08:21:45;;;;;;;20.33;18.30;;;-3.10;99.90;;;;;;4981891;28;20176;-51
2023/01/19 08:24:18;;;;;;;21.00;19.00;;;-2.90;99.90;;;;;;4972869;28;20191;-49
2023/01/19 08:26:44;;;;;;;21.17;19.23;;;-2.60;99.90;;;;;;4976668;28;20227;-44
2023/01/19 08:29:09;;;;;;;21.63;19.40;;;-2.40;99.90;;;;;;4981721;28;20191;-47
2023/01/19 08:31:35;;;;;;;20.50;18.60;;;-2.10;99.90;;;;;;4982039;28;20226;-48
2023/01/19 08:34:00;;;;;;;22.70;20.70;;;-1.60;99.90;;;;;;4982028;28;20549;-48
2023/01/19 08:36:26;;;;;;;21.73;19.73;;;-1.10;99.90;;;;;;4968609;28;20251;-47
2023/01/19 08:38:52;;;;;;;21.97;20.17;;;-0.70;99.90;;;;;;4981323;28;20262;-47
2023/01/19 08:41:18;;;;;;;21.88;19.77;;;-0.30;99.90;;;;;;4977178;28;20232;-48
2023/01/19 08:43:44;;;;;;;22.23;20.33;;;0.00;99.90;;;;;;4970783;28;20669;-47
2023/01/19 08:46:10;;;;;;;19.75;18.05;;;0.40;99.90;;;;;;4981412;28;20178;-45
2023/01/19 08:48:36;;;;;;;18.33;16.85;;;0.60;99.90;;;;;;4981651;28;20183;-47
2023/01/19 08:51:02;;;;;;;17.80;16.40;;;0.90;99.90;;;;;;4981617;28;20260;-50
2023/01/19 08:53:27;;;;;;;17.37;16.07;;;1.50;99.90;;;;;;4973960;28;20198;-48
2023/01/19 08:55:56;;;;;;;18.40;17.00;;;1.90;99.90;;;;;;4977304;28;20677;-47
2023/01/19 08:58:22;;;;;;;17.35;16.05;;;2.40;99.90;;;;;;4977814;28;20246;-45
2023/01/19 09:00:48;;;;;;;17.05;15.85;;;2.80;99.90;;;;;;4981415;28;20274;-49
2023/01/19 09:03:13;;;;;;;16.97;15.73;;;3.30;99.90;;;;;;4981739;28;20199;-47
2023/01/19 09:05:39;;;;;;;16.20;15.10;;;3.70;99.90;;;;;;4981540;28;20182;-45
2023/01/19 09:08:11;;;;;;;16.00;14.90;;;4.00;99.90;;;;;;4973024;28;20332;-47
2023/01/19 09:10:38;;;;;;;16.70;15.35;;;4.50;99.90;;;;;;4977044;28;20334;-49
2023/01/19 09:13:09;;;;;;;17.25;16.05;;;4.70;97.70;;;;;;4980911;28;20185;-48
2023/01/19 09:15:36;;;;;;;16.45;15.45;;;4.90;98.50;;;;;;4980899;28;20332;-47
2023/01/19 09:18:03;;;;;;;16.00;15.00;;;5.40;96.00;;;;;;4980918;28;20186;-47
2023/01/19 09:20:33;;;;;;;16.70;15.60;;;5.60;95.80;;;;;;4981201;28;20262;-47
2023/01/19 09:22:59;;;;;;;16.63;15.30;;;5.60;95.70;;;;;;4977632;28;20278;-47
2023/01/19 09:25:25;;;;;;;17.27;15.93;;;5.80;93.70;;;;;;4975463;28;20579;-44
2023/01/19 09:27:51;;;;;;;15.93;14.93;;;5.70;93.20;;;;;;4970535;28;20562;-47
2023/01/19 09:30:18;;;;;;;17.80;16.60;;;5.80;93.10;;;;;;4972773;28;20459;-44
2023/01/19 09:32:44;;;;;;;16.93;15.83;;;5.90;92.10;;;;;;4963007;28;20510;-47
2023/01/19 09:35:10;;;;;;;18.13;16.83;;;5.90;92.30;;;;;;4976414;28;20419;-45
2023/01/19 09:37:36;;;;;;;18.77;17.27;;;5.90;92.50;;;;;;4980232;28;20485;-46
2023/01/19 09:40:03;;;;;;;17.00;15.80;;;6.00;91.70;;;;;;4972542;28;20435;-45
2023/01/19 09:42:34;;;;;;;18.00;16.70;;;6.20;91.60;;;;;;4980072;28;20232;-47
2023/01/19 09:45:05;;;;;;;18.10;16.90;;;6.10;90.50;;;;;;4979434;28;20423;-45
2023/01/19 09:47:34;;;;;;;17.80;16.60;;;6.30;88.90;;;;;;4979553;28;20435;-48
2023/01/19 09:50:09;;;;;;;17.63;16.23;;;6.30;90.00;;;;;;4978702;28;20468;-44
2023/01/19 09:52:40;;;;;;;16.83;15.73;;;6.50;89.30;;;;;;4970522;28;20422;-44
2023/01/19 09:55:22;;;;;;;18.13;16.87;;;6.60;89.90;;;;;;4980502;28;20430;-45
2023/01/19 09:57:47;;;;;;;17.33;16.23;;;6.70;88.20;;;;;;4980325;28;20916;-45
2023/01/19 10:00:16;;;;;;;17.87;16.77;;;6.70;84.60;;;;;;4979750;28;20415;-46
2023/01/19 10:02:47;;;;;;;16.87;15.70;;;6.50;83.90;;;;;;4978399;28;20176;-47
2023/01/19 10:05:38;;;;;;;18.63;17.40;;;6.60;87.50;;;;;;4978546;28;20412;-45
2023/01/19 10:08:27;;;;;;;18.03;16.80;;;6.80;86.80;;;;;;4979919;28;20427;-45
2023/01/19 10:10:56;;;;;;;17.30;16.10;;;7.20;87.20;;;;;;4979148;28;20467;-45
2023/01/19 10:13:45;;;;;;;18.93;17.40;;;7.50;85.20;;;;;;4979135;28;20421;-45
2023/01/19 10:16:42;;;;;;;17.83;16.40;;;7.50;80.60;;;;;;4970997;28;20440;-44
2023/01/19 10:19:26;;;;;;;17.23;16.03;;;7.30;80.30;;;;;;4950712;28;21060;-47
2023/01/19 10:21:54;;;;;;;17.23;16.03;;;7.60;80.20;;;;;;4979534;28;20510;-48
2023/01/19 10:24:26;;;;;;;16.13;14.87;;;8.10;73.50;;;;;;4979856;28;20451;-45
2023/01/19 10:26:54;;;;;;;16.03;14.70;;;7.90;72.20;;;;;;4967307;28;20531;-46
2023/01/19 10:29:33;;;;;;;15.80;14.80;;;8.20;71.60;;;;;;4971852;28;20794;-49
2023/01/19 10:32:20;;;;;;;16.83;15.83;;;8.60;70.60;;;;;;4979161;28;20939;-45
2023/01/19 10:34:46;;;;;;;17.33;16.20;;;8.80;67.00;;;;;;4967658;28;20967;-46
2023/01/19 10:37:20;;;;;;;16.73;15.63;;;9.10;67.10;;;;;;4976593;28;20475;-45
2023/01/19 10:39:52;;;;;;;15.73;14.73;;;9.00;68.00;;;;;;4971961;28;20464;-48
2023/01/19 10:42:18;;;;;;;16.97;15.83;;;9.20;65.50;;;;;;4966461;28;20562;-47
2023/01/19 10:44:44;;;;;;;16.60;15.60;;;9.50;63.00;;;;;;4979099;28;20425;-48
2023/01/19 10:47:19;;;;;;;17.10;16.10;;;9.70;60.20;;;;;;4978878;28;20261;-46
2023/01/19 10:49:46;;;;;;;16.70;15.60;;;10.10;59.60;;;;;;4978428;28;20465;-47
2023/01/19 10:52:32;;;;;;;16.53;15.53;;;9.70;57.30;;;;;;4979157;28;20903;-48
2023/01/19 10:55:00;;;;;;;17.10;15.90;;;9.10;59.50;;;;;;4979382;28;20453;-45
2023/01/19 10:57:42;;;;;;;17.27;16.07;;;9.60;63.00;;;;;;4976567;28;20832;-46
2023/01/19 11:00:28;;;;;;;17.23;16.03;;;10.30;59.80;;;;;;4958950;28;20435;-46
2023/01/19 11:02:53;;;;;;;16.00;14.80;;;10.70;58.30;;;;;;4968161;28;20441;-45
2023/01/19 11:05:28;;;;;;;18.10;16.90;;;11.00;54.90;;;;;;4978867;28;20430;-50
2023/01/19 11:07:54;;;;;;;17.20;16.10;;;11.50;55.40;;;;;;4972553;28;20189;-50
2023/01/19 11:10:22;;;;;;;17.40;16.30;;;11.40;51.20;;;;;;4982454;28;20477;-44
2023/01/19 11:12:56;;;;;;;17.53;16.33;;;11.30;50.30;;;;;;4982839;28;20414;-45
2023/01/19 11:15:34;;;;;;;17.03;15.93;;;11.60;50.90;;;;;;4983064;28;20434;-45
2023/01/19 11:18:02;;;;;;;16.97;15.93;;;12.00;50.80;;;;;;4982077;28;20429;-44
2023/01/19 11:20:52;;;;;;;17.30;16.20;;;12.30;48.20;;;;;;4982804;28;20440;-46
2023/01/19 11:23:20;;;;;;;16.50;15.43;;;12.50;46.60;;;;;;4982279;28;20525;-44
2023/01/19 11:25:48;;;;;;;16.20;15.30;;;12.40;46.40;;;;;;4979243;28;20424;-47
2023/01/19 11:28:24;;;;;;;17.10;16.07;;;12.40;45.30;;;;;;4971292;28;20908;-44
2023/01/19 11:31:14;;;;;;;16.73;15.60;;;12.20;45.90;;;;;;4973271;28;21400;-46
2023/01/19 11:33:45;;;;;;;17.10;16.10;;;12.30;45.60;;;;;;4969621;28;20491;-43
2023/01/19 11:36:32;;;;;;;17.00;16.00;;;12.40;44.50;;;;;;4977630;28;20569;-44
2023/01/19 11:39:11;;;;;;;16.63;15.53;;;12.60;46.30;;;;;;4976337;28;20961;-47
2023/01/19 11:41:38;;;;;;;18.33;17.13;;;12.60;44.60;;;;;;4976316;28;20477;-46
2023/01/19 11:44:34;;;;;;;16.77;15.77;;;12.20;44.50;;;;;;4962591;28;20876;-47
2023/01/19 11:47:03;;;;;;;17.87;16.77;;;12.00;45.20;;;;;;4981298;28;20423;-46
2023/01/19 11:50:01;;;;;;;17.43;16.33;;;12.30;46.50;;;;;;4982630;28;20462;-47
2023/01/19 11:52:44;;;;;;;18.70;17.40;;;12.50;46.00;;;;;;4978382;28;20474;-44
2023/01/19 11:55:16;;;;;;;19.10;17.80;;;11.50;45.50;;;;;;4982297;28;20411;-46
2023/01/19 11:57:47;;;;;;;18.90;17.70;;;10.40;48.30;;;;;;4976926;28;20459;-45
2023/01/19 12:00:34;;;;;;;19.43;18.13;;;9.30;50.90;;;;;;4970938;28;20581;-44
2023/01/19 12:03:23;;;;;;;18.63;17.43;;;9.50;54.80;;;;;;4982538;28;20429;-45
2023/01/19 12:05:53;;;;;;;17.87;16.77;;;9.80;55.00;;;;;;4982096;28;20420;-45
2023/01/19 12:08:28;;;;;;;17.43;16.43;;;10.10;55.00;;;;;;4982439;28;20449;-47
2023/01/19 12:10:56;;;;;;;17.60;16.50;;;10.10;51.60;;;;;;4981197;28;20464;-44
2023/01/19 12:13:26;;;;;;;17.83;16.73;;;10.20;52.70;;;;;;4982366;28;20419;-46
2023/01/19 12:16:05;;;;;;;18.30;17.20;;;10.30;52.00;;;;;;4982482;28;20427;-45
2023/01/19 12:18:38;;;;;;;18.30;17.20;;;10.80;51.60;;;;;;4979835;28;20415;-45
2023/01/19 12:21:04;;;;;;;19.93;18.43;;;10.90;50.10;;;;;;4982102;28;20430;-44
2023/01/19 12:23:52;;;;;;;18.23;17.13;;;9.90;50.30;;;;;;4982029;28;20433;-44
2023/01/19 12:26:43;;;;;;;17.70;16.60;;;9.40;54.00;;;;;;4980198;28;20976;-43
2023/01/19 12:29:16;;;;;;;18.60;17.27;;;9.90;55.20;;;;;;4979808;28;20486;-47
2023/01/19 12:31:42;;;;;;;18.13;17.03;;;10.30;52.30;;;;;;4973275;28;20633;-45
2023/01/19 12:34:29;;;;;;;17.33;16.13;;;10.70;51.40;;;;;;4980907;28;20417;-46
2023/01/19 12:37:00;;;;;;;15.90;15.00;;;11.50;47.00;;;;;;4980954;28;20841;-47
2023/01/19 12:39:25;;;;;;;16.10;15.20;;;11.60;45.40;;;;;;4980924;28;20449;-47
2023/01/19 12:42:14;;;;;;;15.40;14.50;;;11.90;42.40;;;;;;4981617;28;20484;-43
2023/01/19 12:44:41;;;;;;;18.73;17.53;;;11.80;44.30;;;;;;4980793;28;20204;-45
2023/01/19 12:47:09;;;;;;;19.07;17.70;;;11.20;47.10;;;;;;4978476;28;20530;-43
2023/01/19 12:49:40;;;;;;;17.60;16.40;;;10.00;49.10;;;;;;4981282;28;20471;-45